sensor_id;sensor_type;location;lat;lon;timestamp;P1;durP1;ratioP1;P2;durP2;ratioP2
20170;SDS011;10245;51.344;6.620;2022-12-08T00:02:09;20.47;;;16.63;;
20170;SDS011;10245;51.344;6.620;2022-12-08T00:04:34;23.97;;;17.57;;
20170;SDS011;10245;51.344;6.620;2022-12-08T00:07:17;22.70;;;16.30;;
20170;SDS011;10245;51.344;6.620;2022-12-08T00:10:04;24.20;;;17.43;;
20170;SDS011;10245;51.344;6.620;2022-12-08T00:12:49;22.90;;;17.40;;
20170;SDS011;10245;51.344;6.620;2022-12-08T00:15:12;21.67;;;16.90;;
20170;SDS011;10245;51.344;6.620;2022-12-08T00:17:37;25.83;;;16.97;;
20170;SDS011;10245;51.344;6.620;2022-12-08T00:20:01;21.30;;;16.13;;
20170;SDS011;10245;51.344;6.620;2022-12-08T00:22:24;24.77;;;16.60;;
20170;SDS011;10245;51.344;6.620;2022-12-08T00:24:49;27.20;;;18.00;;
20170;SDS011;10245;51.344;6.620;2022-12-08T00:27:13;27.03;;;17.53;;
20170;SDS011;10245;51.344;6.620;2022-12-08T00:29:38;23.27;;;17.87;;
20170;SDS011;10245;51.344;6.620;2022-12-08T00:32:02;29.07;;;19.43;;
20170;SDS011;10245;51.344;6.620;2022-12-08T00:34:27;26.60;;;18.63;;
20170;SDS011;10245;51.344;6.620;2022-12-08T00:36:52;24.37;;;17.67;;
20170;SDS011;10245;51.344;6.620;2022-12-08T00:39:15;25.17;;;18.67;;
20170;SDS011;10245;51.344;6.620;2022-12-08T00:41:40;26.07;;;19.77;;
20170;SDS011;10245;51.344;6.620;2022-12-08T00:44:20;27.17;;;19.27;;
20170;SDS011;10245;51.344;6.620;2022-12-08T00:46:44;27.47;;;19.07;;
20170;SDS011;10245;51.344;6.620;2022-12-08T00:49:09;29.60;;;19.03;;
20170;SDS011;10245;51.344;6.620;2022-12-08T00:51:33;26.30;;;18.83;;
20170;SDS011;10245;51.344;6.620;2022-12-08T00:53:57;28.00;;;18.67;;
20170;SDS011;10245;51.344;6.620;2022-12-08T00:56:20;24.63;;;19.60;;
20170;SDS011;10245;51.344;6.620;2022-12-08T00:58:44;26.70;;;20.03;;
20170;SDS011;10245;51.344;6.620;2022-12-08T01:01:08;28.90;;;19.77;;
20170;SDS011;10245;51.344;6.620;2022-12-08T01:03:32;29.33;;;20.77;;
20170;SDS011;10245;51.344;6.620;2022-12-08T01:05:56;26.40;;;20.23;;
20170;SDS011;10245;51.344;6.620;2022-12-08T01:08:26;27.33;;;20.00;;
20170;SDS011;10245;51.344;6.620;2022-12-08T01:10:49;30.00;;;20.87;;
20170;SDS011;10245;51.344;6.620;2022-12-08T01:13:12;28.23;;;19.77;;
20170;SDS011;10245;51.344;6.620;2022-12-08T01:15:36;31.87;;;21.03;;
20170;SDS011;10245;51.344;6.620;2022-12-08T01:17:59;30.37;;;20.37;;
20170;SDS011;10245;51.344;6.620;2022-12-08T01:20:23;32.20;;;21.43;;
20170;SDS011;10245;51.344;6.620;2022-12-08T01:22:46;31.40;;;21.10;;
20170;SDS011;10245;51.344;6.620;2022-12-08T01:25:11;28.63;;;20.73;;
20170;SDS011;10245;51.344;6.620;2022-12-08T01:27:35;33.30;;;20.77;;
20170;SDS011;10245;51.344;6.620;2022-12-08T01:29:58;34.27;;;21.53;;
20170;SDS011;10245;51.344;6.620;2022-12-08T01:32:22;32.67;;;21.33;;
20170;SDS011;10245;51.344;6.620;2022-12-08T01:34:45;29.33;;;21.00;;
20170;SDS011;10245;51.344;6.620;2022-12-08T01:37:09;36.33;;;23.57;;
20170;SDS011;10245;51.344;6.620;2022-12-08T01:39:33;34.77;;;23.80;;
20170;SDS011;10245;51.344;6.620;2022-12-08T01:41:58;37.23;;;24.87;;
20170;SDS011;10245;51.344;6.620;2022-12-08T01:47:19;37.70;;;24.83;;
20170;SDS011;10245;51.344;6.620;2022-12-08T01:49:44;39.27;;;23.80;;
20170;SDS011;10245;51.344;6.620;2022-12-08T01:52:10;36.67;;;25.07;;
20170;SDS011;10245;51.344;6.620;2022-12-08T01:54:39;38.23;;;24.40;;
20170;SDS011;10245;51.344;6.620;2022-12-08T01:57:11;41.03;;;27.73;;
20170;SDS011;10245;51.344;6.620;2022-12-08T01:59:47;40.90;;;28.73;;
20170;SDS011;10245;51.344;6.620;2022-12-08T02:02:15;40.13;;;25.80;;
20170;SDS011;10245;51.344;6.620;2022-12-08T02:04:38;41.30;;;26.67;;
20170;SDS011;10245;51.344;6.620;2022-12-08T02:07:02;38.47;;;25.60;;
20170;SDS011;10245;51.344;6.620;2022-12-08T02:09:28;39.57;;;25.63;;
20170;SDS011;10245;51.344;6.620;2022-12-08T02:11:52;36.60;;;24.40;;
20170;SDS011;10245;51.344;6.620;2022-12-08T02:14:19;41.00;;;26.13;;
20170;SDS011;10245;51.344;6.620;2022-12-08T02:16:44;41.00;;;27.87;;
20170;SDS011;10245;51.344;6.620;2022-12-08T02:19:21;40.87;;;27.23;;
20170;SDS011;10245;51.344;6.620;2022-12-08T02:22:26;40.83;;;26.90;;
20170;SDS011;10245;51.344;6.620;2022-12-08T02:25:01;47.43;;;28.63;;
20170;SDS011;10245;51.344;6.620;2022-12-08T02:27:32;42.57;;;27.67;;
20170;SDS011;10245;51.344;6.620;2022-12-08T02:30:08;41.00;;;26.57;;
20170;SDS011;10245;51.344;6.620;2022-12-08T02:35:50;40.97;;;26.83;;
20170;SDS011;10245;51.344;6.620;2022-12-08T02:38:20;43.23;;;27.20;;
20170;SDS011;10245;51.344;6.620;2022-12-08T02:41:04;35.73;;;23.37;;
20170;SDS011;10245;51.344;6.620;2022-12-08T02:43:40;34.10;;;22.60;;
20170;SDS011;10245;51.344;6.620;2022-12-08T02:46:06;37.60;;;23.83;;
20170;SDS011;10245;51.344;6.620;2022-12-08T02:48:33;34.83;;;24.63;;
20170;SDS011;10245;51.344;6.620;2022-12-08T02:50:58;31.60;;;22.47;;
20170;SDS011;10245;51.344;6.620;2022-12-08T02:53:22;31.83;;;22.80;;
20170;SDS011;10245;51.344;6.620;2022-12-08T02:55:48;32.30;;;22.80;;
20170;SDS011;10245;51.344;6.620;2022-12-08T02:58:37;35.83;;;24.77;;
20170;SDS011;10245;51.344;6.620;2022-12-08T03:01:30;35.93;;;24.40;;
20170;SDS011;10245;51.344;6.620;2022-12-08T03:04:13;39.27;;;24.83;;
20170;SDS011;10245;51.344;6.620;2022-12-08T03:06:47;42.90;;;25.83;;
20170;SDS011;10245;51.344;6.620;2022-12-08T03:09:19;38.07;;;24.97;;
20170;SDS011;10245;51.344;6.620;2022-12-08T03:11:53;37.10;;;24.43;;
20170;SDS011;10245;51.344;6.620;2022-12-08T03:14:26;42.63;;;27.80;;
20170;SDS011;10245;51.344;6.620;2022-12-08T03:16:51;37.87;;;26.40;;
20170;SDS011;10245;51.344;6.620;2022-12-08T03:19:20;39.13;;;25.00;;
20170;SDS011;10245;51.344;6.620;2022-12-08T03:21:50;37.57;;;25.47;;
20170;SDS011;10245;51.344;6.620;2022-12-08T03:24:20;37.13;;;24.40;;
20170;SDS011;10245;51.344;6.620;2022-12-08T03:26:45;34.50;;;23.13;;
20170;SDS011;10245;51.344;6.620;2022-12-08T03:29:12;38.17;;;24.90;;
20170;SDS011;10245;51.344;6.620;2022-12-08T03:31:37;34.60;;;24.40;;
20170;SDS011;10245;51.344;6.620;2022-12-08T03:34:03;37.83;;;24.53;;
20170;SDS011;10245;51.344;6.620;2022-12-08T03:36:27;35.50;;;23.13;;
20170;SDS011;10245;51.344;6.620;2022-12-08T03:38:52;31.60;;;21.93;;
20170;SDS011;10245;51.344;6.620;2022-12-08T03:41:16;31.77;;;21.07;;
20170;SDS011;10245;51.344;6.620;2022-12-08T03:43:39;32.47;;;21.17;;
20170;SDS011;10245;51.344;6.620;2022-12-08T03:46:03;29.27;;;19.80;;
20170;SDS011;10245;51.344;6.620;2022-12-08T03:48:27;30.47;;;20.43;;
20170;SDS011;10245;51.344;6.620;2022-12-08T03:50:50;27.40;;;18.43;;
20170;SDS011;10245;51.344;6.620;2022-12-08T03:53:13;27.40;;;20.00;;
20170;SDS011;10245;51.344;6.620;2022-12-08T03:55:38;25.70;;;18.53;;
20170;SDS011;10245;51.344;6.620;2022-12-08T03:58:01;25.47;;;18.33;;
20170;SDS011;10245;51.344;6.620;2022-12-08T04:00:25;23.90;;;18.13;;
20170;SDS011;10245;51.344;6.620;2022-12-08T04:02:48;27.30;;;18.17;;
20170;SDS011;10245;51.344;6.620;2022-12-08T04:05:11;29.20;;;19.70;;
20170;SDS011;10245;51.344;6.620;2022-12-08T04:07:35;26.27;;;17.67;;
20170;SDS011;10245;51.344;6.620;2022-12-08T04:09:58;26.63;;;18.80;;
20170;SDS011;10245;51.344;6.620;2022-12-08T04:12:23;24.93;;;18.80;;
20170;SDS011;10245;51.344;6.620;2022-12-08T04:14:46;24.33;;;18.80;;
20170;SDS011;10245;51.344;6.620;2022-12-08T04:17:10;24.97;;;20.07;;
20170;SDS011;10245;51.344;6.620;2022-12-08T04:19:33;28.00;;;19.73;;
20170;SDS011;10245;51.344;6.620;2022-12-08T04:21:56;26.10;;;19.10;;
20170;SDS011;10245;51.344;6.620;2022-12-08T04:24:20;25.43;;;18.57;;
20170;SDS011;10245;51.344;6.620;2022-12-08T04:26:43;26.17;;;19.10;;
20170;SDS011;10245;51.344;6.620;2022-12-08T04:29:08;27.37;;;19.27;;
20170;SDS011;10245;51.344;6.620;2022-12-08T04:31:31;26.03;;;19.93;;
20170;SDS011;10245;51.344;6.620;2022-12-08T04:33:55;26.03;;;18.20;;
20170;SDS011;10245;51.344;6.620;2022-12-08T04:36:18;24.20;;;18.33;;
20170;SDS011;10245;51.344;6.620;2022-12-08T04:38:41;29.40;;;20.00;;
20170;SDS011;10245;51.344;6.620;2022-12-08T04:41:05;26.10;;;19.27;;
20170;SDS011;10245;51.344;6.620;2022-12-08T04:43:28;26.53;;;19.63;;
20170;SDS011;10245;51.344;6.620;2022-12-08T04:45:53;25.20;;;19.30;;
20170;SDS011;10245;51.344;6.620;2022-12-08T04:48:16;28.10;;;19.10;;
20170;SDS011;10245;51.344;6.620;2022-12-08T04:50:40;25.00;;;19.47;;
20170;SDS011;10245;51.344;6.620;2022-12-08T04:53:06;26.57;;;20.53;;
20170;SDS011;10245;51.344;6.620;2022-12-08T04:55:30;29.70;;;21.00;;
20170;SDS011;10245;51.344;6.620;2022-12-08T04:57:53;27.30;;;20.20;;
20170;SDS011;10245;51.344;6.620;2022-12-08T05:00:17;28.33;;;20.77;;
20170;SDS011;10245;51.344;6.620;2022-12-08T05:02:42;30.20;;;21.10;;
20170;SDS011;10245;51.344;6.620;2022-12-08T05:05:06;30.03;;;22.77;;
20170;SDS011;10245;51.344;6.620;2022-12-08T05:07:30;28.30;;;21.23;;
20170;SDS011;10245;51.344;6.620;2022-12-08T05:09:53;29.27;;;20.90;;
20170;SDS011;10245;51.344;6.620;2022-12-08T05:12:17;28.73;;;21.50;;
20170;SDS011;10245;51.344;6.620;2022-12-08T05:14:40;31.47;;;21.63;;
20170;SDS011;10245;51.344;6.620;2022-12-08T05:17:04;29.27;;;21.63;;
20170;SDS011;10245;51.344;6.620;2022-12-08T05:19:31;31.63;;;22.13;;
20170;SDS011;10245;51.344;6.620;2022-12-08T05:21:54;32.30;;;22.00;;
20170;SDS011;10245;51.344;6.620;2022-12-08T05:24:18;31.73;;;22.50;;
20170;SDS011;10245;51.344;6.620;2022-12-08T05:26:42;37.03;;;24.93;;
20170;SDS011;10245;51.344;6.620;2022-12-08T05:29:05;37.63;;;24.17;;
20170;SDS011;10245;51.344;6.620;2022-12-08T05:31:28;34.10;;;23.83;;
20170;SDS011;10245;51.344;6.620;2022-12-08T05:33:52;35.50;;;23.97;;
20170;SDS011;10245;51.344;6.620;2022-12-08T05:36:24;38.00;;;24.80;;
20170;SDS011;10245;51.344;6.620;2022-12-08T05:38:47;39.43;;;25.70;;
20170;SDS011;10245;51.344;6.620;2022-12-08T05:41:12;37.40;;;24.53;;
20170;SDS011;10245;51.344;6.620;2022-12-08T05:43:37;37.47;;;26.87;;
20170;SDS011;10245;51.344;6.620;2022-12-08T05:46:00;41.50;;;25.67;;
20170;SDS011;10245;51.344;6.620;2022-12-08T05:48:25;41.57;;;28.37;;
20170;SDS011;10245;51.344;6.620;2022-12-08T05:50:48;42.03;;;27.53;;
20170;SDS011;10245;51.344;6.620;2022-12-08T05:53:14;45.80;;;30.93;;
20170;SDS011;10245;51.344;6.620;2022-12-08T05:55:37;41.27;;;26.93;;
20170;SDS011;10245;51.344;6.620;2022-12-08T05:58:01;45.47;;;28.83;;
20170;SDS011;10245;51.344;6.620;2022-12-08T06:00:28;45.30;;;27.80;;
20170;SDS011;10245;51.344;6.620;2022-12-08T06:02:55;48.07;;;28.93;;
20170;SDS011;10245;51.344;6.620;2022-12-08T06:05:18;48.47;;;30.23;;
20170;SDS011;10245;51.344;6.620;2022-12-08T06:07:41;46.10;;;30.20;;
20170;SDS011;10245;51.344;6.620;2022-12-08T06:10:07;43.93;;;30.00;;
20170;SDS011;10245;51.344;6.620;2022-12-08T06:12:31;48.33;;;27.80;;
20170;SDS011;10245;51.344;6.620;2022-12-08T06:14:54;44.90;;;26.73;;
20170;SDS011;10245;51.344;6.620;2022-12-08T06:17:18;44.77;;;29.37;;
20170;SDS011;10245;51.344;6.620;2022-12-08T06:19:41;42.37;;;27.87;;
20170;SDS011;10245;51.344;6.620;2022-12-08T06:22:04;40.27;;;26.90;;
20170;SDS011;10245;51.344;6.620;2022-12-08T06:24:28;40.13;;;25.93;;
20170;SDS011;10245;51.344;6.620;2022-12-08T06:26:53;40.37;;;26.07;;
20170;SDS011;10245;51.344;6.620;2022-12-08T06:29:16;42.20;;;27.73;;
20170;SDS011;10245;51.344;6.620;2022-12-08T06:31:40;40.93;;;25.97;;
20170;SDS011;10245;51.344;6.620;2022-12-08T06:34:03;40.77;;;26.90;;
20170;SDS011;10245;51.344;6.620;2022-12-08T06:36:27;40.40;;;27.00;;
20170;SDS011;10245;51.344;6.620;2022-12-08T06:38:50;40.63;;;26.13;;
20170;SDS011;10245;51.344;6.620;2022-12-08T06:41:14;32.40;;;22.97;;
20170;SDS011;10245;51.344;6.620;2022-12-08T06:43:40;35.73;;;22.47;;
20170;SDS011;10245;51.344;6.620;2022-12-08T06:46:05;30.43;;;20.93;;
20170;SDS011;10245;51.344;6.620;2022-12-08T06:48:31;31.10;;;21.63;;
20170;SDS011;10245;51.344;6.620;2022-12-08T06:50:54;32.40;;;22.07;;
20170;SDS011;10245;51.344;6.620;2022-12-08T06:53:18;30.40;;;20.30;;
20170;SDS011;10245;51.344;6.620;2022-12-08T06:55:42;32.27;;;22.77;;
20170;SDS011;10245;51.344;6.620;2022-12-08T06:58:21;35.03;;;24.00;;
20170;SDS011;10245;51.344;6.620;2022-12-08T07:00:46;34.13;;;23.90;;
20170;SDS011;10245;51.344;6.620;2022-12-08T07:03:09;33.07;;;24.70;;
20170;SDS011;10245;51.344;6.620;2022-12-08T07:05:35;32.17;;;22.17;;
20170;SDS011;10245;51.344;6.620;2022-12-08T07:07:59;36.77;;;24.23;;
20170;SDS011;10245;51.344;6.620;2022-12-08T07:10:22;36.93;;;24.50;;
20170;SDS011;10245;51.344;6.620;2022-12-08T07:12:46;33.47;;;21.30;;
20170;SDS011;10245;51.344;6.620;2022-12-08T07:15:09;28.23;;;20.27;;
20170;SDS011;10245;51.344;6.620;2022-12-08T07:17:34;24.40;;;18.50;;
20170;SDS011;10245;51.344;6.620;2022-12-08T07:19:57;27.50;;;19.43;;
20170;SDS011;10245;51.344;6.620;2022-12-08T07:22:21;26.40;;;18.90;;
20170;SDS011;10245;51.344;6.620;2022-12-08T07:24:44;30.20;;;20.30;;
20170;SDS011;10245;51.344;6.620;2022-12-08T07:27:08;30.50;;;20.47;;
20170;SDS011;10245;51.344;6.620;2022-12-08T07:29:31;33.97;;;21.93;;
20170;SDS011;10245;51.344;6.620;2022-12-08T07:31:54;33.07;;;21.83;;
20170;SDS011;10245;51.344;6.620;2022-12-08T07:34:19;29.83;;;19.93;;
20170;SDS011;10245;51.344;6.620;2022-12-08T07:36:43;30.63;;;20.10;;
20170;SDS011;10245;51.344;6.620;2022-12-08T07:39:06;27.50;;;17.77;;
20170;SDS011;10245;51.344;6.620;2022-12-08T07:41:30;29.97;;;18.80;;
20170;SDS011;10245;51.344;6.620;2022-12-08T07:43:54;28.87;;;19.37;;
20170;SDS011;10245;51.344;6.620;2022-12-08T07:46:19;29.37;;;19.77;;
20170;SDS011;10245;51.344;6.620;2022-12-08T07:48:45;28.93;;;19.37;;
20170;SDS011;10245;51.344;6.620;2022-12-08T07:51:11;31.37;;;20.60;;
20170;SDS011;10245;51.344;6.620;2022-12-08T07:53:37;31.43;;;19.97;;
20170;SDS011;10245;51.344;6.620;2022-12-08T07:56:04;29.47;;;20.10;;
20170;SDS011;10245;51.344;6.620;2022-12-08T07:58:29;31.40;;;19.60;;
20170;SDS011;10245;51.344;6.620;2022-12-08T08:00:52;27.93;;;18.50;;
20170;SDS011;10245;51.344;6.620;2022-12-08T08:03:16;28.47;;;16.53;;
20170;SDS011;10245;51.344;6.620;2022-12-08T08:05:39;26.83;;;18.07;;
20170;SDS011;10245;51.344;6.620;2022-12-08T08:08:05;26.93;;;17.83;;
20170;SDS011;10245;51.344;6.620;2022-12-08T08:10:28;26.03;;;18.40;;
20170;SDS011;10245;51.344;6.620;2022-12-08T08:12:52;26.00;;;18.23;;
20170;SDS011;10245;51.344;6.620;2022-12-08T08:15:15;26.47;;;18.37;;
20170;SDS011;10245;51.344;6.620;2022-12-08T08:17:41;28.40;;;20.90;;
20170;SDS011;10245;51.344;6.620;2022-12-08T08:20:05;29.70;;;19.40;;
20170;SDS011;10245;51.344;6.620;2022-12-08T08:22:29;28.27;;;19.83;;
20170;SDS011;10245;51.344;6.620;2022-12-08T08:24:54;33.17;;;21.27;;
20170;SDS011;10245;51.344;6.620;2022-12-08T08:27:17;31.43;;;20.93;;
20170;SDS011;10245;51.344;6.620;2022-12-08T08:29:41;34.87;;;21.87;;
20170;SDS011;10245;51.344;6.620;2022-12-08T08:32:04;35.13;;;23.30;;
20170;SDS011;10245;51.344;6.620;2022-12-08T08:34:28;37.90;;;21.47;;
20170;SDS011;10245;51.344;6.620;2022-12-08T08:36:51;33.67;;;21.37;;
20170;SDS011;10245;51.344;6.620;2022-12-08T08:39:14;35.10;;;23.67;;
20170;SDS011;10245;51.344;6.620;2022-12-08T08:41:39;37.33;;;23.07;;
20170;SDS011;10245;51.344;6.620;2022-12-08T08:44:03;38.80;;;23.00;;
20170;SDS011;10245;51.344;6.620;2022-12-08T08:46:27;39.33;;;25.20;;
20170;SDS011;10245;51.344;6.620;2022-12-08T08:48:51;42.07;;;24.43;;
20170;SDS011;10245;51.344;6.620;2022-12-08T08:51:15;41.43;;;24.77;;
20170;SDS011;10245;51.344;6.620;2022-12-08T08:53:38;47.03;;;28.17;;
20170;SDS011;10245;51.344;6.620;2022-12-08T08:56:02;47.27;;;28.37;;
20170;SDS011;10245;51.344;6.620;2022-12-08T08:58:32;49.60;;;31.10;;
20170;SDS011;10245;51.344;6.620;2022-12-08T09:00:55;51.77;;;32.33;;
20170;SDS011;10245;51.344;6.620;2022-12-08T09:03:18;53.67;;;32.23;;
20170;SDS011;10245;51.344;6.620;2022-12-08T09:05:42;51.80;;;32.73;;
20170;SDS011;10245;51.344;6.620;2022-12-08T09:08:05;58.83;;;35.60;;
20170;SDS011;10245;51.344;6.620;2022-12-08T09:10:29;58.60;;;34.23;;
20170;SDS011;10245;51.344;6.620;2022-12-08T09:12:52;62.80;;;35.80;;
20170;SDS011;10245;51.344;6.620;2022-12-08T09:15:17;59.00;;;33.87;;
20170;SDS011;10245;51.344;6.620;2022-12-08T09:17:41;56.77;;;34.83;;
20170;SDS011;10245;51.344;6.620;2022-12-08T09:20:05;55.40;;;33.37;;
20170;SDS011;10245;51.344;6.620;2022-12-08T09:22:29;55.60;;;32.53;;
20170;SDS011;10245;51.344;6.620;2022-12-08T09:24:52;54.73;;;31.93;;
20170;SDS011;10245;51.344;6.620;2022-12-08T09:27:16;54.40;;;31.23;;
20170;SDS011;10245;51.344;6.620;2022-12-08T09:29:40;52.57;;;31.50;;
20170;SDS011;10245;51.344;6.620;2022-12-08T09:32:04;51.40;;;30.93;;
20170;SDS011;10245;51.344;6.620;2022-12-08T09:34:28;48.47;;;29.23;;
20170;SDS011;10245;51.344;6.620;2022-12-08T09:36:52;50.67;;;31.13;;
20170;SDS011;10245;51.344;6.620;2022-12-08T09:39:16;49.10;;;29.90;;
20170;SDS011;10245;51.344;6.620;2022-12-08T09:41:42;53.80;;;28.83;;
20170;SDS011;10245;51.344;6.620;2022-12-08T09:47:00;47.60;;;29.37;;
20170;SDS011;10245;51.344;6.620;2022-12-08T09:49:35;50.40;;;29.20;;
20170;SDS011;10245;51.344;6.620;2022-12-08T09:52:05;44.43;;;28.77;;
20170;SDS011;10245;51.344;6.620;2022-12-08T09:54:42;46.13;;;28.40;;
20170;SDS011;10245;51.344;6.620;2022-12-08T09:57:06;49.07;;;28.73;;
20170;SDS011;10245;51.344;6.620;2022-12-08T09:59:37;45.00;;;27.07;;
20170;SDS011;10245;51.344;6.620;2022-12-08T10:02:05;46.63;;;29.20;;
20170;SDS011;10245;51.344;6.620;2022-12-08T10:04:41;47.37;;;28.53;;
20170;SDS011;10245;51.344;6.620;2022-12-08T10:07:06;47.27;;;28.47;;
20170;SDS011;10245;51.344;6.620;2022-12-08T10:09:40;43.77;;;27.40;;
20170;SDS011;10245;51.344;6.620;2022-12-08T10:12:10;47.67;;;28.47;;
20170;SDS011;10245;51.344;6.620;2022-12-08T10:14:41;46.77;;;27.00;;
20170;SDS011;10245;51.344;6.620;2022-12-08T10:17:07;44.00;;;28.00;;
20170;SDS011;10245;51.344;6.620;2022-12-08T10:19:39;46.30;;;27.80;;
20170;SDS011;10245;51.344;6.620;2022-12-08T10:22:08;45.47;;;28.43;;
20170;SDS011;10245;51.344;6.620;2022-12-08T10:24:42;43.13;;;27.17;;
20170;SDS011;10245;51.344;6.620;2022-12-08T10:27:15;40.73;;;27.77;;
20170;SDS011;10245;51.344;6.620;2022-12-08T10:29:39;41.47;;;26.30;;
20170;SDS011;10245;51.344;6.620;2022-12-08T10:32:05;46.93;;;26.60;;
20170;SDS011;10245;51.344;6.620;2022-12-08T10:37:21;39.73;;;24.80;;
20170;SDS011;10245;51.344;6.620;2022-12-08T10:39:44;38.67;;;25.27;;
20170;SDS011;10245;51.344;6.620;2022-12-08T10:42:12;43.10;;;25.97;;
20170;SDS011;10245;51.344;6.620;2022-12-08T10:44:49;40.07;;;25.07;;
20170;SDS011;10245;51.344;6.620;2022-12-08T10:47:19;37.93;;;26.07;;
20170;SDS011;10245;51.344;6.620;2022-12-08T10:49:44;39.00;;;24.57;;
20170;SDS011;10245;51.344;6.620;2022-12-08T10:52:08;42.03;;;26.13;;
20170;SDS011;10245;51.344;6.620;2022-12-08T10:54:44;40.87;;;26.23;;
20170;SDS011;10245;51.344;6.620;2022-12-08T10:57:08;39.63;;;24.53;;
20170;SDS011;10245;51.344;6.620;2022-12-08T10:59:42;41.23;;;25.57;;
20170;SDS011;10245;51.344;6.620;2022-12-08T11:02:08;37.03;;;24.77;;
20170;SDS011;10245;51.344;6.620;2022-12-08T11:04:42;37.13;;;24.10;;
20170;SDS011;10245;51.344;6.620;2022-12-08T11:07:06;41.50;;;25.10;;
20170;SDS011;10245;51.344;6.620;2022-12-08T11:09:36;38.77;;;23.37;;
20170;SDS011;10245;51.344;6.620;2022-12-08T11:12:08;36.60;;;22.30;;
20170;SDS011;10245;51.344;6.620;2022-12-08T11:14:43;37.90;;;23.43;;
20170;SDS011;10245;51.344;6.620;2022-12-08T11:17:11;35.83;;;22.50;;
20170;SDS011;10245;51.344;6.620;2022-12-08T11:19:39;46.13;;;25.37;;
20170;SDS011;10245;51.344;6.620;2022-12-08T11:22:18;41.77;;;24.67;;
20170;SDS011;10245;51.344;6.620;2022-12-08T11:24:44;40.47;;;24.17;;
20170;SDS011;10245;51.344;6.620;2022-12-08T11:27:07;36.60;;;23.80;;
20170;SDS011;10245;51.344;6.620;2022-12-08T11:29:32;40.53;;;24.67;;
20170;SDS011;10245;51.344;6.620;2022-12-08T11:31:58;37.17;;;24.40;;
20170;SDS011;10245;51.344;6.620;2022-12-08T11:34:29;34.27;;;22.83;;
20170;SDS011;10245;51.344;6.620;2022-12-08T11:36:58;37.37;;;23.03;;
20170;SDS011;10245;51.344;6.620;2022-12-08T11:39:21;36.73;;;23.20;;
20170;SDS011;10245;51.344;6.620;2022-12-08T11:41:48;33.67;;;23.27;;
20170;SDS011;10245;51.344;6.620;2022-12-08T11:44:19;39.00;;;24.53;;
20170;SDS011;10245;51.344;6.620;2022-12-08T11:46:50;33.97;;;22.83;;
20170;SDS011;10245;51.344;6.620;2022-12-08T11:49:18;36.73;;;22.70;;
20170;SDS011;10245;51.344;6.620;2022-12-08T11:51:42;35.67;;;23.27;;
20170;SDS011;10245;51.344;6.620;2022-12-08T11:54:19;38.93;;;23.10;;
20170;SDS011;10245;51.344;6.620;2022-12-08T11:56:47;43.43;;;23.90;;
20170;SDS011;10245;51.344;6.620;2022-12-08T11:59:15;39.17;;;23.77;;
20170;SDS011;10245;51.344;6.620;2022-12-08T12:01:45;33.23;;;22.20;;
20170;SDS011;10245;51.344;6.620;2022-12-08T12:04:11;36.00;;;22.70;;
20170;SDS011;10245;51.344;6.620;2022-12-08T12:10:11;33.70;;;21.47;;
20170;SDS011;10245;51.344;6.620;2022-12-08T12:12:54;37.90;;;22.37;;
20170;SDS011;10245;51.344;6.620;2022-12-08T12:15:37;33.50;;;21.63;;
20170;SDS011;10245;51.344;6.620;2022-12-08T12:18:22;31.33;;;20.73;;
20170;SDS011;10245;51.344;6.620;2022-12-08T12:20:50;30.73;;;20.00;;
20170;SDS011;10245;51.344;6.620;2022-12-08T12:23:17;31.00;;;19.67;;
20170;SDS011;10245;51.344;6.620;2022-12-08T12:25:47;32.27;;;19.67;;
20170;SDS011;10245;51.344;6.620;2022-12-08T12:28:17;35.77;;;20.57;;
20170;SDS011;10245;51.344;6.620;2022-12-08T12:30:48;33.27;;;20.57;;
20170;SDS011;10245;51.344;6.620;2022-12-08T12:33:20;35.47;;;20.57;;
20170;SDS011;10245;51.344;6.620;2022-12-08T12:35:45;31.57;;;19.83;;
20170;SDS011;10245;51.344;6.620;2022-12-08T12:38:14;31.50;;;19.43;;
20170;SDS011;10245;51.344;6.620;2022-12-08T12:41:05;26.60;;;19.50;;
20170;SDS011;10245;51.344;6.620;2022-12-08T12:43:30;17.67;;;13.10;;
20170;SDS011;10245;51.344;6.620;2022-12-08T12:52:35;22.93;;;12.63;;
20170;SDS011;10245;51.344;6.620;2022-12-08T12:55:19;16.10;;;12.03;;
20170;SDS011;10245;51.344;6.620;2022-12-08T12:57:51;17.13;;;13.67;;
20170;SDS011;10245;51.344;6.620;2022-12-08T13:00:17;22.80;;;14.73;;
20170;SDS011;10245;51.344;6.620;2022-12-08T13:02:44;22.63;;;15.13;;
20170;SDS011;10245;51.344;6.620;2022-12-08T13:05:13;23.97;;;15.53;;
20170;SDS011;10245;51.344;6.620;2022-12-08T13:07:42;27.30;;;18.03;;
20170;SDS011;10245;51.344;6.620;2022-12-08T13:10:15;26.97;;;17.97;;
20170;SDS011;10245;51.344;6.620;2022-12-08T13:12:43;29.93;;;19.43;;
20170;SDS011;10245;51.344;6.620;2022-12-08T13:15:24;32.77;;;20.03;;
20170;SDS011;10245;51.344;6.620;2022-12-08T13:17:56;30.00;;;19.43;;
20170;SDS011;10245;51.344;6.620;2022-12-08T13:20:20;34.43;;;21.23;;
20170;SDS011;10245;51.344;6.620;2022-12-08T13:23:02;31.60;;;19.90;;
20170;SDS011;10245;51.344;6.620;2022-12-08T13:25:49;32.10;;;19.93;;
20170;SDS011;10245;51.344;6.620;2022-12-08T13:28:21;27.97;;;19.50;;
20170;SDS011;10245;51.344;6.620;2022-12-08T13:30:50;31.63;;;20.43;;
20170;SDS011;10245;51.344;6.620;2022-12-08T13:33:16;30.67;;;19.83;;
20170;SDS011;10245;51.344;6.620;2022-12-08T13:38:36;27.93;;;18.23;;
20170;SDS011;10245;51.344;6.620;2022-12-08T13:41:02;30.40;;;18.50;;
20170;SDS011;10245;51.344;6.620;2022-12-08T13:43:34;29.23;;;18.53;;
20170;SDS011;10245;51.344;6.620;2022-12-08T13:46:28;30.73;;;18.13;;
20170;SDS011;10245;51.344;6.620;2022-12-08T13:49:17;29.40;;;17.77;;
20170;SDS011;10245;51.344;6.620;2022-12-08T13:52:13;27.63;;;17.07;;
20170;SDS011;10245;51.344;6.620;2022-12-08T13:54:58;26.57;;;17.37;;
20170;SDS011;10245;51.344;6.620;2022-12-08T13:57:46;25.80;;;17.43;;
20170;SDS011;10245;51.344;6.620;2022-12-08T14:00:14;27.47;;;19.23;;
20170;SDS011;10245;51.344;6.620;2022-12-08T14:02:41;35.97;;;22.10;;
20170;SDS011;10245;51.344;6.620;2022-12-08T14:05:09;31.10;;;20.03;;
20170;SDS011;10245;51.344;6.620;2022-12-08T14:07:53;27.73;;;18.37;;
20170;SDS011;10245;51.344;6.620;2022-12-08T14:10:18;32.57;;;20.93;;
20170;SDS011;10245;51.344;6.620;2022-12-08T14:12:45;29.63;;;18.33;;
20170;SDS011;10245;51.344;6.620;2022-12-08T14:15:15;27.53;;;18.23;;
20170;SDS011;10245;51.344;6.620;2022-12-08T14:17:43;27.07;;;18.70;;
20170;SDS011;10245;51.344;6.620;2022-12-08T14:20:17;27.30;;;18.73;;
20170;SDS011;10245;51.344;6.620;2022-12-08T14:22:44;28.30;;;18.40;;
20170;SDS011;10245;51.344;6.620;2022-12-08T14:25:12;24.60;;;18.10;;
20170;SDS011;10245;51.344;6.620;2022-12-08T14:27:38;25.03;;;17.73;;
20170;SDS011;10245;51.344;6.620;2022-12-08T14:30:01;22.67;;;17.63;;
20170;SDS011;10245;51.344;6.620;2022-12-08T14:32:30;25.87;;;18.67;;
20170;SDS011;10245;51.344;6.620;2022-12-08T14:34:57;33.00;;;20.70;;
20170;SDS011;10245;51.344;6.620;2022-12-08T14:37:24;27.27;;;18.87;;
20170;SDS011;10245;51.344;6.620;2022-12-08T14:39:49;33.43;;;21.03;;
20170;SDS011;10245;51.344;6.620;2022-12-08T14:42:17;30.03;;;21.00;;
20170;SDS011;10245;51.344;6.620;2022-12-08T14:44:44;30.23;;;20.07;;
20170;SDS011;10245;51.344;6.620;2022-12-08T14:47:08;24.50;;;18.23;;